sensor_id;sensor_type;location;lat;lon;timestamp;P1;durP1;ratioP1;P2;durP2;ratioP2
26774;SDS011;14362;51.902;7.626;2022-08-19T00:00:09;5.40;;;4.90;;
26774;SDS011;14362;51.902;7.626;2022-08-19T00:04:14;6.10;;;5.50;;
26774;SDS011;14362;51.902;7.626;2022-08-19T00:08:18;6.10;;;5.60;;
26774;SDS011;14362;51.902;7.626;2022-08-19T00:12:20;6.43;;;5.65;;
26774;SDS011;14362;51.902;7.626;2022-08-19T00:16:23;7.07;;;6.05;;
26774;SDS011;14362;51.902;7.626;2022-08-19T00:20:25;6.50;;;5.90;;
26774;SDS011;14362;51.902;7.626;2022-08-19T00:24:26;8.88;;;6.32;;
26774;SDS011;14362;51.902;7.626;2022-08-19T00:28:28;6.85;;;6.00;;
26774;SDS011;14362;51.902;7.626;2022-08-19T00:32:31;7.40;;;5.93;;
26774;SDS011;14362;51.902;7.626;2022-08-19T00:36:35;7.10;;;6.40;;
26774;SDS011;14362;51.902;7.626;2022-08-19T00:40:37;7.05;;;6.38;;
26774;SDS011;14362;51.902;7.626;2022-08-19T00:44:39;8.57;;;7.32;;
26774;SDS011;14362;51.902;7.626;2022-08-19T00:48:42;8.23;;;6.90;;
26774;SDS011;14362;51.902;7.626;2022-08-19T00:52:44;7.97;;;7.10;;
26774;SDS011;14362;51.902;7.626;2022-08-19T00:56:49;9.30;;;7.25;;
26774;SDS011;14362;51.902;7.626;2022-08-19T01:00:51;10.65;;;7.75;;
26774;SDS011;14362;51.902;7.626;2022-08-19T01:04:54;8.95;;;8.05;;
26774;SDS011;14362;51.902;7.626;2022-08-19T01:08:56;10.75;;;8.23;;
26774;SDS011;14362;51.902;7.626;2022-08-19T01:12:58;8.85;;;7.82;;
26774;SDS011;14362;51.902;7.626;2022-08-19T01:17:02;9.00;;;8.20;;
26774;SDS011;14362;51.902;7.626;2022-08-19T01:21:07;8.93;;;7.82;;
26774;SDS011;14362;51.902;7.626;2022-08-19T01:25:15;9.05;;;7.53;;
26774;SDS011;14362;51.902;7.626;2022-08-19T01:29:20;8.80;;;7.68;;
26774;SDS011;14362;51.902;7.626;2022-08-19T01:33:21;9.60;;;8.60;;
26774;SDS011;14362;51.902;7.626;2022-08-19T01:37:23;10.10;;;8.02;;
26774;SDS011;14362;51.902;7.626;2022-08-19T01:41:26;11.20;;;8.52;;
26774;SDS011;14362;51.902;7.626;2022-08-19T01:45:28;9.60;;;8.57;;
26774;SDS011;14362;51.902;7.626;2022-08-19T01:49:31;9.82;;;7.60;;
26774;SDS011;14362;51.902;7.626;2022-08-19T01:53:32;8.95;;;7.90;;
26774;SDS011;14362;51.902;7.626;2022-08-19T01:57:35;9.68;;;8.25;;
26774;SDS011;14362;51.902;7.626;2022-08-19T02:01:38;9.18;;;8.27;;
26774;SDS011;14362;51.902;7.626;2022-08-19T02:05:39;9.73;;;7.78;;
26774;SDS011;14362;51.902;7.626;2022-08-19T02:09:41;7.88;;;7.13;;
26774;SDS011;14362;51.902;7.626;2022-08-19T02:13:44;10.98;;;7.32;;
26774;SDS011;14362;51.902;7.626;2022-08-19T02:17:46;8.98;;;7.30;;
26774;SDS011;14362;51.902;7.626;2022-08-19T02:21:47;9.18;;;7.38;;
26774;SDS011;14362;51.902;7.626;2022-08-19T02:25:48;11.07;;;8.18;;
26774;SDS011;14362;51.902;7.626;2022-08-19T02:29:51;11.65;;;8.52;;
26774;SDS011;14362;51.902;7.626;2022-08-19T02:33:53;8.93;;;7.90;;
26774;SDS011;14362;51.902;7.626;2022-08-19T02:37:55;10.02;;;9.10;;
26774;SDS011;14362;51.902;7.626;2022-08-19T02:42:14;11.00;;;9.65;;
26774;SDS011;14362;51.902;7.626;2022-08-19T02:46:18;10.55;;;9.45;;
26774;SDS011;14362;51.902;7.626;2022-08-19T02:50:21;13.52;;;9.38;;
26774;SDS011;14362;51.902;7.626;2022-08-19T02:54:22;11.65;;;10.05;;
26774;SDS011;14362;51.902;7.626;2022-08-19T02:58:24;13.00;;;10.57;;
26774;SDS011;14362;51.902;7.626;2022-08-19T03:02:28;12.40;;;10.77;;
26774;SDS011;14362;51.902;7.626;2022-08-19T03:06:30;15.00;;;12.33;;
26774;SDS011;14362;51.902;7.626;2022-08-19T03:10:32;15.32;;;13.48;;
26774;SDS011;14362;51.902;7.626;2022-08-19T03:14:34;15.65;;;13.80;;
26774;SDS011;14362;51.902;7.626;2022-08-19T03:18:37;14.75;;;13.15;;
26774;SDS011;14362;51.902;7.626;2022-08-19T03:22:39;16.42;;;14.63;;
26774;SDS011;14362;51.902;7.626;2022-08-19T03:26:41;15.82;;;14.10;;
26774;SDS011;14362;51.902;7.626;2022-08-19T03:30:54;16.98;;;13.70;;
26774;SDS011;14362;51.902;7.626;2022-08-19T03:34:58;15.73;;;13.82;;
26774;SDS011;14362;51.902;7.626;2022-08-19T03:39:00;19.20;;;14.18;;
26774;SDS011;14362;51.902;7.626;2022-08-19T03:43:02;15.90;;;14.30;;
26774;SDS011;14362;51.902;7.626;2022-08-19T03:47:04;15.88;;;14.27;;
26774;SDS011;14362;51.902;7.626;2022-08-19T03:51:07;16.38;;;14.45;;
26774;SDS011;14362;51.902;7.626;2022-08-19T03:55:16;17.23;;;14.32;;
26774;SDS011;14362;51.902;7.626;2022-08-19T03:59:19;17.92;;;15.80;;
26774;SDS011;14362;51.902;7.626;2022-08-19T04:03:25;16.75;;;15.05;;
26774;SDS011;14362;51.902;7.626;2022-08-19T04:07:28;17.13;;;13.90;;
26774;SDS011;14362;51.902;7.626;2022-08-19T04:11:31;15.30;;;13.77;;
26774;SDS011;14362;51.902;7.626;2022-08-19T04:15:38;16.48;;;13.50;;
26774;SDS011;14362;51.902;7.626;2022-08-19T04:19:41;16.15;;;14.00;;
26774;SDS011;14362;51.902;7.626;2022-08-19T04:23:45;15.65;;;13.68;;
26774;SDS011;14362;51.902;7.626;2022-08-19T04:27:46;18.30;;;14.63;;
26774;SDS011;14362;51.902;7.626;2022-08-19T04:31:48;16.42;;;14.77;;
26774;SDS011;14362;51.902;7.626;2022-08-19T04:35:51;15.88;;;14.27;;
26774;SDS011;14362;51.902;7.626;2022-08-19T04:39:54;16.83;;;15.13;;
26774;SDS011;14362;51.902;7.626;2022-08-19T04:44:14;17.95;;;15.55;;
26774;SDS011;14362;51.902;7.626;2022-08-19T04:48:18;16.50;;;14.70;;
26774;SDS011;14362;51.902;7.626;2022-08-19T04:52:25;16.48;;;14.75;;
26774;SDS011;14362;51.902;7.626;2022-08-19T04:56:28;18.05;;;16.15;;
26774;SDS011;14362;51.902;7.626;2022-08-19T05:00:30;17.70;;;15.70;;
26774;SDS011;14362;51.902;7.626;2022-08-19T05:04:31;20.13;;;16.55;;
26774;SDS011;14362;51.902;7.626;2022-08-19T05:08:33;16.33;;;14.68;;
26774;SDS011;14362;51.902;7.626;2022-08-19T05:12:37;17.15;;;15.07;;
26774;SDS011;14362;51.902;7.626;2022-08-19T05:16:39;16.15;;;14.45;;
26774;SDS011;14362;51.902;7.626;2022-08-19T05:20:41;16.65;;;14.43;;
26774;SDS011;14362;51.902;7.626;2022-08-19T05:25:01;17.60;;;14.55;;
26774;SDS011;14362;51.902;7.626;2022-08-19T05:29:07;17.10;;;14.43;;
26774;SDS011;14362;51.902;7.626;2022-08-19T05:33:09;16.37;;;14.47;;
26774;SDS011;14362;51.902;7.626;2022-08-19T05:37:11;17.92;;;14.73;;
26774;SDS011;14362;51.902;7.626;2022-08-19T05:41:13;18.48;;;14.27;;
26774;SDS011;14362;51.902;7.626;2022-08-19T05:45:18;18.30;;;14.95;;
26774;SDS011;14362;51.902;7.626;2022-08-19T05:49:22;16.20;;;13.05;;
26774;SDS011;14362;51.902;7.626;2022-08-19T05:53:25;16.70;;;15.00;;
26774;SDS011;14362;51.902;7.626;2022-08-19T05:57:26;15.60;;;13.98;;
26774;SDS011;14362;51.902;7.626;2022-08-19T06:01:30;15.25;;;13.73;;
26774;SDS011;14362;51.902;7.626;2022-08-19T06:05:31;15.57;;;13.30;;
26774;SDS011;14362;51.902;7.626;2022-08-19T06:09:33;16.17;;;13.40;;
26774;SDS011;14362;51.902;7.626;2022-08-19T06:13:35;15.75;;;13.50;;
26774;SDS011;14362;51.902;7.626;2022-08-19T06:17:37;15.10;;;12.85;;
26774;SDS011;14362;51.902;7.626;2022-08-19T06:21:40;15.07;;;13.38;;
26774;SDS011;14362;51.902;7.626;2022-08-19T06:25:43;17.10;;;13.88;;
26774;SDS011;14362;51.902;7.626;2022-08-19T06:29:44;16.33;;;14.32;;
26774;SDS011;14362;51.902;7.626;2022-08-19T06:33:48;15.50;;;13.85;;
26774;SDS011;14362;51.902;7.626;2022-08-19T06:37:50;16.98;;;13.98;;
26774;SDS011;14362;51.902;7.626;2022-08-19T06:41:53;16.75;;;13.45;;
26774;SDS011;14362;51.902;7.626;2022-08-19T06:45:56;17.60;;;13.53;;
26774;SDS011;14362;51.902;7.626;2022-08-19T06:50:00;18.45;;;14.88;;
26774;SDS011;14362;51.902;7.626;2022-08-19T06:54:03;20.25;;;14.52;;
26774;SDS011;14362;51.902;7.626;2022-08-19T06:58:04;25.02;;;14.23;;
26774;SDS011;14362;51.902;7.626;2022-08-19T07:02:06;17.60;;;15.45;;
26774;SDS011;14362;51.902;7.626;2022-08-19T07:06:11;18.88;;;15.43;;
26774;SDS011;14362;51.902;7.626;2022-08-19T07:10:17;17.98;;;15.07;;
26774;SDS011;14362;51.902;7.626;2022-08-19T07:14:20;21.42;;;15.27;;
26774;SDS011;14362;51.902;7.626;2022-08-19T07:18:24;19.40;;;14.98;;
26774;SDS011;14362;51.902;7.626;2022-08-19T07:22:27;18.85;;;15.20;;
26774;SDS011;14362;51.902;7.626;2022-08-19T07:26:29;17.20;;;14.38;;
26774;SDS011;14362;51.902;7.626;2022-08-19T07:30:32;23.88;;;15.38;;
26774;SDS011;14362;51.902;7.626;2022-08-19T07:34:37;18.85;;;16.05;;
26774;SDS011;14362;51.902;7.626;2022-08-19T07:38:40;22.20;;;16.02;;
26774;SDS011;14362;51.902;7.626;2022-08-19T07:42:44;20.77;;;15.57;;
26774;SDS011;14362;51.902;7.626;2022-08-19T07:46:47;16.58;;;13.05;;
26774;SDS011;14362;51.902;7.626;2022-08-19T07:50:51;21.92;;;15.68;;
26774;SDS011;14362;51.902;7.626;2022-08-19T07:54:55;19.25;;;15.30;;
26774;SDS011;14362;51.902;7.626;2022-08-19T07:58:57;18.40;;;15.02;;
26774;SDS011;14362;51.902;7.626;2022-08-19T08:02:58;17.13;;;14.77;;
26774;SDS011;14362;51.902;7.626;2022-08-19T08:07:00;17.42;;;13.48;;
26774;SDS011;14362;51.902;7.626;2022-08-19T08:11:20;14.68;;;12.20;;
26774;SDS011;14362;51.902;7.626;2022-08-19T08:15:22;17.00;;;13.93;;
26774;SDS011;14362;51.902;7.626;2022-08-19T08:19:24;13.80;;;12.23;;
26774;SDS011;14362;51.902;7.626;2022-08-19T08:23:27;14.00;;;11.57;;
26774;SDS011;14362;51.902;7.626;2022-08-19T08:27:31;12.02;;;10.15;;
26774;SDS011;14362;51.902;7.626;2022-08-19T08:31:39;8.85;;;7.95;;
26774;SDS011;14362;51.902;7.626;2022-08-19T08:35:42;11.57;;;10.20;;
26774;SDS011;14362;51.902;7.626;2022-08-19T08:39:45;10.18;;;8.77;;
26774;SDS011;14362;51.902;7.626;2022-08-19T08:43:49;10.90;;;8.60;;
26774;SDS011;14362;51.902;7.626;2022-08-19T08:47:53;9.45;;;8.48;;
26774;SDS011;14362;51.902;7.626;2022-08-19T08:52:00;10.98;;;9.68;;
26774;SDS011;14362;51.902;7.626;2022-08-19T08:56:06;11.13;;;9.43;;
26774;SDS011;14362;51.902;7.626;2022-08-19T09:00:15;11.18;;;8.38;;
26774;SDS011;14362;51.902;7.626;2022-08-19T09:04:19;8.30;;;7.45;;
26774;SDS011;14362;51.902;7.626;2022-08-19T09:08:25;10.50;;;8.40;;
26774;SDS011;14362;51.902;7.626;2022-08-19T09:12:35;10.60;;;8.98;;
26774;SDS011;14362;51.902;7.626;2022-08-19T09:16:44;12.23;;;10.38;;
26774;SDS011;14362;51.902;7.626;2022-08-19T09:20:46;10.20;;;9.20;;
26774;SDS011;14362;51.902;7.626;2022-08-19T09:24:48;9.85;;;8.63;;
26774;SDS011;14362;51.902;7.626;2022-08-19T09:28:50;18.10;;;9.70;;
26774;SDS011;14362;51.902;7.626;2022-08-19T09:32:55;8.95;;;7.30;;
26774;SDS011;14362;51.902;7.626;2022-08-19T09:36:57;7.50;;;6.60;;
26774;SDS011;14362;51.902;7.626;2022-08-19T09:41:03;7.60;;;6.78;;
26774;SDS011;14362;51.902;7.626;2022-08-19T09:45:06;5.18;;;4.68;;
26774;SDS011;14362;51.902;7.626;2022-08-19T09:49:09;4.90;;;4.40;;
26774;SDS011;14362;51.902;7.626;2022-08-19T09:53:10;5.07;;;4.57;;
26774;SDS011;14362;51.902;7.626;2022-08-19T09:57:12;5.80;;;5.20;;
26774;SDS011;14362;51.902;7.626;2022-08-19T10:01:18;5.03;;;4.63;;
26774;SDS011;14362;51.902;7.626;2022-08-19T10:05:21;6.30;;;4.88;;
26774;SDS011;14362;51.902;7.626;2022-08-19T10:09:37;7.95;;;4.53;;
26774;SDS011;14362;51.902;7.626;2022-08-19T10:13:40;7.85;;;4.57;;
26774;SDS011;14362;51.902;7.626;2022-08-19T10:17:43;6.63;;;4.97;;
26774;SDS011;14362;51.902;7.626;2022-08-19T10:21:45;6.13;;;5.45;;
26774;SDS011;14362;51.902;7.626;2022-08-19T10:25:47;6.00;;;4.22;;
26774;SDS011;14362;51.902;7.626;2022-08-19T10:29:49;5.43;;;4.88;;
26774;SDS011;14362;51.902;7.626;2022-08-19T10:33:51;5.07;;;4.13;;
26774;SDS011;14362;51.902;7.626;2022-08-19T10:37:58;3.60;;;3.30;;
26774;SDS011;14362;51.902;7.626;2022-08-19T10:46:05;5.72;;;4.32;;
26774;SDS011;14362;51.902;7.626;2022-08-19T10:50:08;4.28;;;3.38;;
26774;SDS011;14362;51.902;7.626;2022-08-19T10:54:28;3.88;;;3.00;;
26774;SDS011;14362;51.902;7.626;2022-08-19T10:58:43;3.72;;;3.42;;
26774;SDS011;14362;51.902;7.626;2022-08-19T11:02:45;5.93;;;3.28;;
26774;SDS011;14362;51.902;7.626;2022-08-19T11:06:47;4.30;;;2.70;;
26774;SDS011;14362;51.902;7.626;2022-08-19T11:10:52;3.17;;;2.87;;
26774;SDS011;14362;51.902;7.626;2022-08-19T11:14:55;5.82;;;3.90;;
26774;SDS011;14362;51.902;7.626;2022-08-19T11:18:58;4.93;;;4.07;;
26774;SDS011;14362;51.902;7.626;2022-08-19T11:22:59;4.67;;;4.07;;
26774;SDS011;14362;51.902;7.626;2022-08-19T11:27:03;4.07;;;3.78;;
26774;SDS011;14362;51.902;7.626;2022-08-19T11:31:09;4.10;;;3.80;;
26774;SDS011;14362;51.902;7.626;2022-08-19T11:35:12;4.38;;;3.97;;
26774;SDS011;14362;51.902;7.626;2022-08-19T11:39:15;3.78;;;3.47;;
26774;SDS011;14362;51.902;7.626;2022-08-19T11:43:19;4.43;;;3.65;;
26774;SDS011;14362;51.902;7.626;2022-08-19T11:47:21;3.92;;;3.53;;
26774;SDS011;14362;51.902;7.626;2022-08-19T11:51:23;4.72;;;4.07;;
26774;SDS011;14362;51.902;7.626;2022-08-19T11:55:25;4.88;;;4.47;;
26774;SDS011;14362;51.902;7.626;2022-08-19T11:59:28;5.60;;;4.90;;
26774;SDS011;14362;51.902;7.626;2022-08-19T12:03:30;5.93;;;4.68;;
26774;SDS011;14362;51.902;7.626;2022-08-19T12:07:32;6.82;;;6.20;;
26774;SDS011;14362;51.902;7.626;2022-08-19T12:11:33;8.73;;;7.40;;
26774;SDS011;14362;51.902;7.626;2022-08-19T12:15:38;6.70;;;6.10;;
26774;SDS011;14362;51.902;7.626;2022-08-19T12:19:41;9.25;;;6.85;;
26774;SDS011;14362;51.902;7.626;2022-08-19T12:23:42;7.47;;;6.78;;
26774;SDS011;14362;51.902;7.626;2022-08-19T12:27:44;8.18;;;7.13;;
26774;SDS011;14362;51.902;7.626;2022-08-19T12:31:47;8.23;;;7.53;;
26774;SDS011;14362;51.902;7.626;2022-08-19T12:35:49;7.45;;;6.75;;
26774;SDS011;14362;51.902;7.626;2022-08-19T12:39:50;5.65;;;4.97;;
26774;SDS011;14362;51.902;7.626;2022-08-19T12:43:52;6.10;;;5.60;;
26774;SDS011;14362;51.902;7.626;2022-08-19T12:47:54;6.65;;;5.90;;
26774;SDS011;14362;51.902;7.626;2022-08-19T12:51:56;8.52;;;5.90;;
26774;SDS011;14362;51.902;7.626;2022-08-19T12:55:58;6.25;;;5.65;;
26774;SDS011;14362;51.902;7.626;2022-08-19T13:00:01;5.68;;;4.88;;
26774;SDS011;14362;51.902;7.626;2022-08-19T13:04:09;5.10;;;4.60;;
26774;SDS011;14362;51.902;7.626;2022-08-19T13:08:10;5.63;;;4.22;;
26774;SDS011;14362;51.902;7.626;2022-08-19T13:12:12;5.55;;;4.53;;
26774;SDS011;14362;51.902;7.626;2022-08-19T13:16:13;5.70;;;5.15;;
26774;SDS011;14362;51.902;7.626;2022-08-19T13:20:18;7.35;;;4.50;;
26774;SDS011;14362;51.902;7.626;2022-08-19T13:24:21;5.30;;;4.80;;
26774;SDS011;14362;51.902;7.626;2022-08-19T13:28:22;4.45;;;3.95;;
26774;SDS011;14362;51.902;7.626;2022-08-19T13:32:24;4.38;;;3.97;;
26774;SDS011;14362;51.902;7.626;2022-08-19T13:36:45;4.90;;;4.43;;
26774;SDS011;14362;51.902;7.626;2022-08-19T13:40:46;4.75;;;4.35;;
26774;SDS011;14362;51.902;7.626;2022-08-19T13:48:54;5.53;;;4.50;;
26774;SDS011;14362;51.902;7.626;2022-08-19T13:52:58;4.95;;;4.45;;
26774;SDS011;14362;51.902;7.626;2022-08-19T13:56:59;5.78;;;5.03;;
26774;SDS011;14362;51.902;7.626;2022-08-19T14:01:01;5.75;;;5.18;;
26774;SDS011;14362;51.902;7.626;2022-08-19T14:05:03;7.50;;;5.20;;
26774;SDS011;14362;51.902;7.626;2022-08-19T14:09:06;6.28;;;5.38;;
26774;SDS011;14362;51.902;7.626;2022-08-19T14:13:07;4.70;;;4.30;;
26774;SDS011;14362;51.902;7.626;2022-08-19T14:17:09;4.72;;;4.22;;
26774;SDS011;14362;51.902;7.626;2022-08-19T14:21:13;4.07;;;3.78;;
26774;SDS011;14362;51.902;7.626;2022-08-19T14:25:19;4.35;;;3.95;;
26774;SDS011;14362;51.902;7.626;2022-08-19T14:29:22;4.78;;;4.15;;
26774;SDS011;14362;51.902;7.626;2022-08-19T14:33:23;5.70;;;4.75;;
26774;SDS011;14362;51.902;7.626;2022-08-19T14:37:25;5.65;;;4.32;;
26774;SDS011;14362;51.902;7.626;2022-08-19T14:41:28;5.20;;;4.32;;
26774;SDS011;14362;51.902;7.626;2022-08-19T14:45:30;4.50;;;4.10;;
26774;SDS011;14362;51.902;7.626;2022-08-19T14:49:33;5.43;;;3.87;;
26774;SDS011;14362;51.902;7.626;2022-08-19T14:53:35;5.80;;;4.07;;
26774;SDS011;14362;51.902;7.626;2022-08-19T14:57:38;4.47;;;4.07;;
26774;SDS011;14362;51.902;7.626;2022-08-19T15:01:41;5.95;;;4.18;;
26774;SDS011;14362;51.902;7.626;2022-08-19T15:05:42;5.93;;;4.03;;
26774;SDS011;14362;51.902;7.626;2022-08-19T15:09:44;5.82;;;4.07;;
26774;SDS011;14362;51.902;7.626;2022-08-19T15:13:47;3.53;;;3.22;;
26774;SDS011;14362;51.902;7.626;2022-08-19T15:17:49;5.97;;;3.70;;
26774;SDS011;14362;51.902;7.626;2022-08-19T15:21:51;4.18;;;3.78;;
26774;SDS011;14362;51.902;7.626;2022-08-19T15:25:54;3.70;;;3.40;;
26774;SDS011;14362;51.902;7.626;2022-08-19T15:29:57;3.33;;;3.13;;
26774;SDS011;14362;51.902;7.626;2022-08-19T15:33:59;4.32;;;3.53;;
26774;SDS011;14362;51.902;7.626;2022-08-19T15:38:00;3.90;;;3.60;;
26774;SDS011;14362;51.902;7.626;2022-08-19T15:42:02;4.50;;;3.10;;
26774;SDS011;14362;51.902;7.626;2022-08-19T15:46:05;3.00;;;2.78;;
26774;SDS011;14362;51.902;7.626;2022-08-19T15:50:07;3.30;;;3.00;;
26774;SDS011;14362;51.902;7.626;2022-08-19T15:54:12;3.78;;;2.83;;
26774;SDS011;14362;51.902;7.626;2022-08-19T15:58:15;4.00;;;3.60;;
26774;SDS011;14362;51.902;7.626;2022-08-19T16:02:36;4.47;;;3.17;;
26774;SDS011;14362;51.902;7.626;2022-08-19T16:06:56;6.85;;;2.95;;
26774;SDS011;14362;51.902;7.626;2022-08-19T16:15:00;5.18;;;3.40;;
26774;SDS011;14362;51.902;7.626;2022-08-19T16:19:03;5.03;;;3.13;;
26774;SDS011;14362;51.902;7.626;2022-08-19T16:23:07;4.28;;;3.45;;
26774;SDS011;14362;51.902;7.626;2022-08-19T16:27:09;5.45;;;3.20;;
26774;SDS011;14362;51.902;7.626;2022-08-19T16:31:11;4.07;;;3.67;;
26774;SDS011;14362;51.902;7.626;2022-08-19T16:35:15;6.20;;;4.03;;
26774;SDS011;14362;51.902;7.626;2022-08-19T16:39:16;5.97;;;4.35;;
26774;SDS011;14362;51.902;7.626;2022-08-19T16:43:18;6.95;;;4.85;;
26774;SDS011;14362;51.902;7.626;2022-08-19T16:47:20;5.00;;;3.88;;
26774;SDS011;14362;51.902;7.626;2022-08-19T16:51:23;5.95;;;4.60;;
26774;SDS011;14362;51.902;7.626;2022-08-19T16:55:24;4.67;;;4.27;;
26774;SDS011;14362;51.902;7.626;2022-08-19T16:59:27;5.88;;;3.90;;
26774;SDS011;14362;51.902;7.626;2022-08-19T17:03:29;7.00;;;4.38;;
26774;SDS011;14362;51.902;7.626;2022-08-19T17:07:32;5.75;;;4.57;;
26774;SDS011;14362;51.902;7.626;2022-08-19T17:11:34;6.10;;;5.50;;
26774;SDS011;14362;51.902;7.626;2022-08-19T17:15:35;5.75;;;4.60;;
26774;SDS011;14362;51.902;7.626;2022-08-19T17:19:37;7.53;;;4.70;;
26774;SDS011;14362;51.902;7.626;2022-08-19T17:23:42;5.05;;;4.40;;
26774;SDS011;14362;51.902;7.626;2022-08-19T17:27:44;5.00;;;4.50;;
26774;SDS011;14362;51.902;7.626;2022-08-19T17:31:45;4.72;;;4.22;;
26774;SDS011;14362;51.902;7.626;2022-08-19T17:35:47;4.95;;;4.03;;
26774;SDS011;14362;51.902;7.626;2022-08-19T17:39:50;5.70;;;3.88;;
26774;SDS011;14362;51.902;7.626;2022-08-19T17:43:51;7.40;;;3.28;;
26774;SDS011;14362;51.902;7.626;2022-08-19T17:47:53;4.20;;;3.20;;
26774;SDS011;14362;51.902;7.626;2022-08-19T17:51:55;4.63;;;2.97;;
26774;SDS011;14362;51.902;7.626;2022-08-19T17:55:59;3.22;;;2.92;;
26774;SDS011;14362;51.902;7.626;2022-08-19T18:00:01;3.13;;;2.67;;
26774;SDS011;14362;51.902;7.626;2022-08-19T18:04:03;4.70;;;2.90;;
26774;SDS011;14362;51.902;7.626;2022-08-19T18:08:06;3.63;;;3.10;;
26774;SDS011;14362;51.902;7.626;2022-08-19T18:12:11;5.57;;;2.92;;
26774;SDS011;14362;51.902;7.626;2022-08-19T18:16:15;3.53;;;2.60;;
26774;SDS011;14362;51.902;7.626;2022-08-19T18:20:17;3.70;;;2.92;;
26774;SDS011;14362;51.902;7.626;2022-08-19T18:24:19;3.55;;;2.60;;
26774;SDS011;14362;51.902;7.626;2022-08-19T18:28:22;3.67;;;2.95;;
26774;SDS011;14362;51.902;7.626;2022-08-19T18:32:25;3.35;;;2.75;;
26774;SDS011;14362;51.902;7.626;2022-08-19T18:36:27;3.60;;;3.05;;
26774;SDS011;14362;51.902;7.626;2022-08-19T18:40:28;4.20;;;2.70;;
26774;SDS011;14362;51.902;7.626;2022-08-19T18:44:49;3.15;;;2.85;;
26774;SDS011;14362;51.902;7.626;2022-08-19T18:49:08;3.90;;;3.45;;
26774;SDS011;14362;51.902;7.626;2022-08-19T18:53:11;7.82;;;4.80;;
26774;SDS011;14362;51.902;7.626;2022-08-19T18:57:12;10.38;;;8.50;;
26774;SDS011;14362;51.902;7.626;2022-08-19T19:01:18;11.80;;;10.70;;
26774;SDS011;14362;51.902;7.626;2022-08-19T19:10:22;21.10;;;15.05;;
26774;SDS011;14362;51.902;7.626;2022-08-19T19:14:24;15.43;;;13.52;;
26774;SDS011;14362;51.902;7.626;2022-08-19T19:18:32;16.55;;;14.25;;
26774;SDS011;14362;51.902;7.626;2022-08-19T19:22:33;22.67;;;16.08;;
26774;SDS011;14362;51.902;7.626;2022-08-19T19:26:35;18.55;;;16.55;;
26774;SDS011;14362;51.902;7.626;2022-08-19T19:30:36;18.00;;;14.32;;
26774;SDS011;14362;51.902;7.626;2022-08-19T19:34:39;19.73;;;16.23;;
26774;SDS011;14362;51.902;7.626;2022-08-19T19:38:41;18.80;;;14.25;;
26774;SDS011;14362;51.902;7.626;2022-08-19T19:42:44;19.50;;;15.68;;
26774;SDS011;14362;51.902;7.626;2022-08-19T19:46:46;22.05;;;16.30;;
26774;SDS011;14362;51.902;7.626;2022-08-19T19:50:49;21.33;;;16.48;;
26774;SDS011;14362;51.902;7.626;2022-08-19T19:54:51;18.90;;;16.27;;
26774;SDS011;14362;51.902;7.626;2022-08-19T19:58:53;17.98;;;15.45;;
26774;SDS011;14362;51.902;7.626;2022-08-19T20:02:54;20.33;;;15.88;;
26774;SDS011;14362;51.902;7.626;2022-08-19T20:06:57;18.92;;;14.60;;
26774;SDS011;14362;51.902;7.626;2022-08-19T20:10:59;17.30;;;15.32;;
26774;SDS011;14362;51.902;7.626;2022-08-19T20:15:02;22.13;;;16.08;;
26774;SDS011;14362;51.902;7.626;2022-08-19T20:19:05;16.42;;;14.60;;
26774;SDS011;14362;51.902;7.626;2022-08-19T20:23:09;19.58;;;17.02;;
26774;SDS011;14362;51.902;7.626;2022-08-19T20:27:10;18.10;;;14.35;;
26774;SDS011;14362;51.902;7.626;2022-08-19T20:31:12;18.20;;;15.65;;
26774;SDS011;14362;51.902;7.626;2022-08-19T20:35:14;17.92;;;16.02;;
26774;SDS011;14362;51.902;7.626;2022-08-19T20:39:18;16.60;;;15.00;;
26774;SDS011;14362;51.902;7.626;2022-08-19T20:43:20;16.30;;;14.18;;
26774;SDS011;14362;51.902;7.626;2022-08-19T20:47:21;19.10;;;14.52;;
26774;SDS011;14362;51.902;7.626;2022-08-19T20:51:23;13.65;;;12.25;;
26774;SDS011;14362;51.902;7.626;2022-08-19T20:55:26;14.52;;;12.25;;
26774;SDS011;14362;51.902;7.626;2022-08-19T20:59:29;12.70;;;11.18;;
26774;SDS011;14362;51.902;7.626;2022-08-19T21:03:43;12.35;;;11.15;;
26774;SDS011;14362;51.902;7.626;2022-08-19T21:07:45;9.95;;;8.93;;
26774;SDS011;14362;51.902;7.626;2022-08-19T21:11:46;12.73;;;9.48;;
26774;SDS011;14362;51.902;7.626;2022-08-19T21:15:48;12.30;;;9.85;;
26774;SDS011;14362;51.902;7.626;2022-08-19T21:19:51;14.35;;;10.82;;
26774;SDS011;14362;51.902;7.626;2022-08-19T21:23:53;12.65;;;11.35;;
26774;SDS011;14362;51.902;7.626;2022-08-19T21:27:54;12.20;;;11.00;;
26774;SDS011;14362;51.902;7.626;2022-08-19T21:31:56;12.25;;;10.30;;
26774;SDS011;14362;51.902;7.626;2022-08-19T21:35:59;9.55;;;8.57;;
26774;SDS011;14362;51.902;7.626;2022-08-19T21:40:00;9.27;;;8.23;;
26774;SDS011;14362;51.902;7.626;2022-08-19T21:44:02;9.00;;;8.10;;
26774;SDS011;14362;51.902;7.626;2022-08-19T21:48:03;8.50;;;7.45;;
26774;SDS011;14362;51.902;7.626;2022-08-19T21:52:07;8.50;;;7.70;;
26774;SDS011;14362;51.902;7.626;2022-08-19T21:56:08;7.68;;;6.97;;
26774;SDS011;14362;51.902;7.626;2022-08-19T22:00:11;9.18;;;7.65;;
26774;SDS011;14362;51.902;7.626;2022-08-19T22:04:16;8.57;;;7.68;;
26774;SDS011;14362;51.902;7.626;2022-08-19T22:08:19;10.50;;;8.60;;
26774;SDS011;14362;51.902;7.626;2022-08-19T22:12:21;8.18;;;7.38;;
26774;SDS011;14362;51.902;7.626;2022-08-19T22:16:24;9.90;;;8.23;;
26774;SDS011;14362;51.902;7.626;2022-08-19T22:20:26;8.45;;;7.50;;
26774;SDS011;14362;51.902;7.626;2022-08-19T22:24:32;8.55;;;7.20;;
26774;SDS011;14362;51.902;7.626;2022-08-19T22:28:34;9.90;;;7.72;;
26774;SDS011;14362;51.902;7.626;2022-08-19T22:32:35;8.70;;;7.80;;
26774;SDS011;14362;51.902;7.626;2022-08-19T22:36:37;8.68;;;7.78;;
26774;SDS011;14362;51.902;7.626;2022-08-19T22:40:41;11.60;;;8.70;;
26774;SDS011;14362;51.902;7.626;2022-08-19T22:44:45;9.90;;;8.48;;
26774;SDS011;14362;51.902;7.626;2022-08-19T22:48:46;7.47;;;6.78;;
26774;SDS011;14362;51.902;7.626;2022-08-19T22:52:48;8.57;;;7.68;;
26774;SDS011;14362;51.902;7.626;2022-08-19T22:56:58;8.23;;;7.43;;
26774;SDS011;14362;51.902;7.626;2022-08-19T23:00:59;8.63;;;7.72;;
26774;SDS011;14362;51.902;7.626;2022-08-19T23:05:01;9.52;;;7.70;;
26774;SDS011;14362;51.902;7.626;2022-08-19T23:09:04;41.47;;;23.75;;
26774;SDS011;14362;51.902;7.626;2022-08-19T23:13:08;18.70;;;13.20;;
26774;SDS011;14362;51.902;7.626;2022-08-19T23:17:10;14.13;;;11.90;;
26774;SDS011;14362;51.902;7.626;2022-08-19T23:21:11;13.52;;;11.55;;
26774;SDS011;14362;51.902;7.626;2022-08-19T23:25:13;13.07;;;11.77;;
26774;SDS011;14362;51.902;7.626;2022-08-19T23:34:14;13.85;;;10.50;;
26774;SDS011;14362;51.902;7.626;2022-08-19T23:38:17;12.00;;;10.70;;
26774;SDS011;14362;51.902;7.626;2022-08-19T23:42:18;11.95;;;10.68;;
26774;SDS011;14362;51.902;7.626;2022-08-19T23:46:20;12.23;;;10.93;;
26774;SDS011;14362;51.902;7.626;2022-08-19T23:50:24;13.77;;;11.10;;
26774;SDS011;14362;51.902;7.626;2022-08-19T23:54:26;13.63;;;11.27;;
26774;SDS011;14362;51.902;7.626;2022-08-19T23:58:28;14.13;;;11.80;;
